Metar Report
Metar
METAR KTYQ 212356Z AUTO 31010G15KT 10SM CLR 22/13 A3007 A02 1747
METAR KTYQ 212256Z AUTO 31012G16KT 10SM CLR 24/14 A3001 A02 1746
METAR KTYQ 212156Z AUTO 30009G15KT 10SM CLR 26/16 A3000 A02 1745
METAR KTYQ 212056Z AUTO 28011G17KT 10SM SCT039 27/18 A2999 A02 1744
METAR KTYQ 211956Z AUTO 27012G15KT 10SM SCT028 SCT035 SCT050 26/20 A2999 A02 1743
METAR KTYQ 211856Z AUTO 27013G18KT 10SM CLR 26/20 A2999 A02 1742
METAR KTYQ 211756Z AUTO 27015G20KT 10SM SCT023 BKN028 OVC055 26/21 A3000 A02 1741
METAR KTYQ 211656Z AUTO 25013G19KT 10SM CLR 26/21 A2999 A02 1740
METAR KTYQ 211556Z AUTO 24009KT 10SM BKN110 26/21 A2997 A02 1739
METAR KTYQ 211456Z AUTO 24014KT 10SM SCT055 SCT075 BKN110 27/20 A2998 A02 1738
METAR KTYQ 211356Z AUTO 24013G22KT 10SM SCT050 SCT095 26/20 A2998 A02 1737
METAR KTYQ 211256Z AUTO 19011G17KT 10SM CLR 24/19 A2996 A02 1736
METAR KTYQ 211156Z AUTO 21011KT 10SM CLR 23/19 A2996 A02 1735
METAR KTYQ 211056Z AUTO 20010KT 10SM CLR 23/19 A2995 A02 1734
METAR KTYQ 210956Z AUTO 20009KT 10SM SCT110 23/19 A2996 A02 1733
METAR KTYQ 210856Z AUTO 21009KT 10SM CLR 24/19 A2996 A02 1732
METAR KTYQ 210756Z AUTO 20008KT 10SM CLR 23/19 A2997 A02 1731
METAR KTYQ 210656Z AUTO 19006KT 10SM CLR 23/21 A2998 A02 1730
METAR KTYQ 210556Z AUTO 19007KT 10SM CLR 24/21 A2997 A02 1729
METAR KTYQ 210456Z AUTO 19007KT 10SM CLR 25/21 A2997 A02 1728
METAR KTYQ 210356Z AUTO 19006KT 10SM CLR 25/22 A2997 A02 1727
METAR KTYQ 210256Z AUTO 18009KT 10SM CLR 26/22 A2996 A02 1726
METAR KTYQ 210156Z AUTO 17005KT 10SM CLR 27/22 A2997 A02 1725
METAR KTYQ 210056Z AUTO 17007KT 10SM CLR 27/22 A2997 A02 1724
METAR KTYQ 202356Z AUTO 19005KT 10SM CLR 27/22 A2998 A02 1723
METAR KTYQ 202256Z AUTO 19008KT 10SM CLR 29/22 A2997 A02 1722
METAR KTYQ 202156Z AUTO 20012KT 10SM CLR 31/22 A2997 A02 1721
METAR KTYQ 202056Z AUTO 21010KT 10SM CLR 32/21 A2998 A02 1720
METAR KTYQ 201956Z AUTO 20010G17KT 10SM CLR 32/21 A2999 A02 1719
METAR KTYQ 201856Z AUTO 21009KT 10SM CLR 31/22 A3002 A02 1718
METAR KTYQ 201756Z AUTO 20010G15KT 10SM SCT046 SCT060 31/22 A3003 A02 1717
METAR KTYQ 201656Z AUTO 22009KT 10SM CLR 31/22 A3005 A02 1716
METAR KTYQ 201556Z AUTO 22007KT 10SM CLR 29/22 A3007 A02 1715
METAR KTYQ 201456Z AUTO 20008KT 10SM CLR 27/22 A3008 A02 1714
METAR KTYQ 201356Z AUTO 20005KT 10SM CLR 25/22 A3006 A02 1713
METAR KTYQ 201256Z AUTO 19004KT 7SM CLR 22/22 A3006 A02 1712
METAR KTYQ 201156Z AUTO 16004KT 1 1/2SM BR VV007 18/18 A3005 A02 1711
METAR KTYQ 201056Z AUTO 00000KT 3SM BR CLR 19/19 A3004 A02 1710
METAR KTYQ 200956Z AUTO 00000KT 7SM CLR 19/19 A3003 A02 1709
METAR KTYQ 200856Z AUTO 00000KT 5SM BR CLR 19/19 A3003 A02 1708
METAR KTYQ 200756Z AUTO 00000KT 7SM CLR 19/19 A3003 A02 1707
METAR KTYQ 200656Z AUTO 00000KT 10SM CLR 20/20 A3002 A02 1706
METAR KTYQ 200556Z AUTO 00000KT 7SM CLR 21/20 A3001 A02 1705
METAR KTYQ 200456Z AUTO 00000KT 10SM CLR 21/21 A3000 A02 1704
METAR KTYQ 200356Z AUTO 00000KT 10SM CLR 21/21 A3001 A02 1703
METAR KTYQ 200256Z AUTO 00000KT 10SM CLR 22/22 A3002 A02 1702
METAR KTYQ 200156Z AUTO 02004KT 7SM SCT070 BKN090 BKN110 22/22 A3003 A02 1701
METAR KTYQ 200056Z AUTO 00000KT 7SM BKN110 23/23 A3001 A02 1700
METAR KTYQ 192356Z AUTO 00000KT 7SM SCT100 23/23 A3000 A02 1699
METAR KTYQ 192256Z AUTO 27009KT 10SM RA SCT024 SCT031 BKN060 26/23 A3000 A02 1698
METAR KTYQ 192156Z AUTO 00000KT 10SM CLR 29/19 A2998 A02 1697
METAR KTYQ 192056Z AUTO 13003KT 10SM CLR 31/19 A2998 A02 1696
METAR KTYQ 191956Z AUTO 20004KT 10SM CLR 30/19 A3000 A02 1695
METAR KTYQ 191856Z AUTO 00000KT 10SM CLR 29/19 A3001 A02 1694
METAR KTYQ 191756Z AUTO 18005KT 10SM CLR 29/19 A3002 A02 1693
METAR KTYQ 191656Z AUTO 15004KT 10SM SCT120 28/20 A3005 A02 1692
METAR KTYQ 191556Z AUTO 12004KT 10SM SCT120 26/21 A3005 A02 1691
METAR KTYQ 191456Z AUTO 00000KT 10SM CLR 24/21 A3004 A02 1690
METAR KTYQ 191356Z AUTO 07006KT 10SM CLR 22/21 A3003 A02 1689
METAR KTYQ 191256Z AUTO 06003KT 7SM CLR 20/20 A3003 A02 1688
METAR KTYQ 191156Z AUTO 05003KT 4SM BR CLR 19/19 A3001 A02 1687
METAR KTYQ 191056Z AUTO 00000KT 7SM BR SCT120 20/20 A3000 A02 1686
METAR KTYQ 190956Z AUTO 00000KT 7SM BKN110 20/20 A2999 A02 1685
METAR KTYQ 190856Z AUTO 00000KT 7SM SCT055 SCT075 20/20 A2998 A02 1684
METAR KTYQ 190756Z AUTO 05005KT 7SM RA BKN065 OVC080 20/20 A2998 A02 P0002 1683
METAR KTYQ 190656Z AUTO 03005KT 7SM +RA SCT019 SCT042 OVC060 21/21 A2998 A02 P0010 1682
METAR KTYQ 190556Z AUTO 00000KT 10SM SCT060 BKN070 BKN120 21/19 A2996 A02 1681
METAR KTYQ 190456Z AUTO 00000KT 10SM BKN080 BKN120 20/20 A2996 A02 1680
METAR KTYQ 190356Z AUTO 00000KT 10SM CLR 20/19 A2996 A02 1679
METAR KTYQ 190256Z AUTO 00000KT 10SM CLR 21/20 A2995 A02 1678
METAR KTYQ 190156Z AUTO 00000KT 10SM CLR 23/20 A2995 A02 1677
METAR KTYQ 190056Z AUTO 35005KT 10SM SCT085 24/20 A2994 A02 1676
METAR KTYQ 182356Z AUTO 35003KT 10SM BKN080 26/19 A2993 A02 1675
METAR KTYQ 182256Z AUTO 30003KT 10SM BKN090 OVC110 28/19 A2992 A02 1674
METAR KTYQ 182156Z AUTO 30004KT 10SM SCT100 BKN120 29/18 A2991 A02 1673
METAR KTYQ 182056Z AUTO 31004KT 10SM SCT080 BKN110 31/15 A2992 A02 1672
METAR KTYQ 181956Z AUTO 29003KT 10SM SCT070 32/17 A2993 A02 1671
METAR KTYQ 181856Z AUTO 23003KT 10SM SCT060 31/17 A2994 A02 1670
METAR KTYQ 181756Z AUTO 00000KT 10SM SCT050 SCT070 SCT085 30/19 A2995 A02 1669
METAR KTYQ 181656Z AUTO 17003KT 10SM CLR 29/19 A2996 A02 1668
METAR KTYQ 181556Z AUTO 35003KT 10SM CLR 28/21 A2997 A02 1667
METAR KTYQ 181456Z AUTO 00000KT 10SM CLR 27/21 A2998 A02 1666
METAR KTYQ 181356Z AUTO 00000KT 10SM CLR 24/21 A2998 A02 1665
METAR KTYQ 181256Z AUTO 00000KT 5SM BR CLR 20/19 A2998 A02 1664
METAR KTYQ 181156Z AUTO 00000KT 10SM CLR 17/17 A2996 A02 1663
METAR KTYQ 181056Z AUTO 00000KT 10SM CLR 17/17 A2996 A02 1662
METAR KTYQ 180956Z AUTO 00000KT 10SM CLR 17/17 A2995 A02 1661
METAR KTYQ 180856Z AUTO 00000KT 10SM CLR 17/17 A2994 A02 1660
METAR KTYQ 180756Z AUTO 00000KT 10SM SCT090 18/18 A2994 A02 1659
METAR KTYQ 180656Z AUTO 00000KT 10SM CLR 18/18 A2996 A02 1658
METAR KTYQ 180556Z AUTO 00000KT 10SM CLR 19/18 A2996 A02 1657
METAR KTYQ 180456Z AUTO 00000KT 10SM SCT075 BKN090 20/19 A2997 A02 1656
METAR KTYQ 180356Z AUTO 00000KT 10SM SCT080 19/19 A2996 A02 1655
METAR KTYQ 180256Z AUTO 00000KT 10SM CLR 19/19 A2995 A02 1654
METAR KTYQ 180156Z AUTO 00000KT 10SM SCT075 21/21 A2994 A02 1653
METAR KTYQ 180056Z AUTO 00000KT 10SM CLR 22/20 A2993 A02 1652
METAR KTYQ 172356Z AUTO 00000KT 10SM CLR 25/20 A2991 A02 1651
METAR KTYQ 172256Z AUTO 35004KT 10SM CLR 30/17 A2990 A02 1650
METAR KTYQ 172156Z AUTO 00000KT 10SM SCT080 31/18 A2989 A02 1649
METAR KTYQ 172056Z AUTO 31004KT 10SM SCT080 SCT090 30/18 A2989 A02 1648
METAR KTYQ 171956Z AUTO 04005KT 10SM SCT055 SCT075 29/18 A2990 A02 1647
METAR KTYQ 171856Z AUTO 34006KT 5SM HZ CLR 30/18 A2993 A02 1646
METAR KTYQ 171756Z AUTO 04006KT 7SM HZ SCT047 28/18 A2994 A02 1645
METAR KTYQ 171656Z AUTO 01007KT 7SM SCT041 SCT065 28/19 A2996 A02 1644
METAR KTYQ 171556Z AUTO 36005KT 3SM HZ BKN037 BKN044 28/20 A2997 A02 1643
METAR KTYQ 171456Z AUTO 35003KT 10SM CLR 26/21 A2998 A02 1642
METAR KTYQ 171356Z AUTO 00000KT 10SM CLR 21/20 A2998 A02 1641
METAR KTYQ 171256Z AUTO 00000KT 10SM CLR 20/19 A2998 A02 1640
METAR KTYQ 171156Z AUTO 34004KT 10SM CLR 19/19 A2998 A02 1639
METAR KTYQ 171056Z AUTO 00000KT 10SM CLR 19/19 A2997 A02 1638
METAR KTYQ 170956Z AUTO 35003KT 10SM CLR 19/19 A2997 A02 1637
METAR KTYQ 170856Z AUTO 00000KT 10SM CLR 19/19 A2997 A02 1636
METAR KTYQ 170756Z AUTO 00000KT 10SM CLR 19/19 A2997 A02 1635
METAR KTYQ 170656Z AUTO 03003KT 10SM CLR 19/19 A2999 A02 1634
METAR KTYQ 170556Z AUTO 04003KT 10SM CLR 19/19 A3000 A02 1633
METAR KTYQ 170456Z AUTO 03003KT 10SM CLR 19/19 A3002 A02 1632
METAR KTYQ 170356Z AUTO 00000KT 10SM CLR 20/20 A3003 A02 1631
METAR KTYQ 170256Z AUTO 00000KT 10SM CLR 21/20 A3003 A02 1630
METAR KTYQ 170156Z AUTO 12003KT 10SM CLR 22/19 A3003 A02 1629
METAR KTYQ 170056Z AUTO 00000KT 10SM CLR 23/20 A3002 A02 1628
METAR KTYQ 162356Z AUTO 07003KT 10SM CLR 26/19 A3001 A02 1627